sensor_id;sensor_type;location;lat;lon;timestamp;temperature;humidity
13433;DHT22;6789;47.678;9.158;2023-04-29T00:09:05;14.10;99.90
13433;DHT22;6789;47.678;9.158;2023-04-29T00:14:52;14.10;99.90
13433;DHT22;6789;47.678;9.158;2023-04-29T00:20:03;14.10;99.90
13433;DHT22;6789;47.678;9.158;2023-04-29T00:26:09;14.10;99.90
13433;DHT22;6789;47.678;9.158;2023-04-29T00:31:17;14.10;99.90
13433;DHT22;6789;47.678;9.158;2023-04-29T00:41:29;14.00;99.90
13433;DHT22;6789;47.678;9.158;2023-04-29T00:46:22;14.10;99.90
13433;DHT22;6789;47.678;9.158;2023-04-29T00:51:15;14.00;99.90
13433;DHT22;6789;47.678;9.158;2023-04-29T00:56:09;14.10;99.90
13433;DHT22;6789;47.678;9.158;2023-04-29T01:01:03;14.10;99.90
13433;DHT22;6789;47.678;9.158;2023-04-29T01:17:09;14.00;99.90
13433;DHT22;6789;47.678;9.158;2023-04-29T01:22:06;14.00;99.90
13433;DHT22;6789;47.678;9.158;2023-04-29T01:27:04;13.90;99.90
13433;DHT22;6789;47.678;9.158;2023-04-29T01:32:23;13.90;99.90
13433;DHT22;6789;47.678;9.158;2023-04-29T01:37:32;13.90;99.90
13433;DHT22;6789;47.678;9.158;2023-04-29T01:48:25;13.80;99.90
13433;DHT22;6789;47.678;9.158;2023-04-29T01:53:33;13.80;99.90
13433;DHT22;6789;47.678;9.158;2023-04-29T01:58:39;13.70;99.90
13433;DHT22;6789;47.678;9.158;2023-04-29T02:03:45;13.70;99.90
13433;DHT22;6789;47.678;9.158;2023-04-29T02:08:37;13.70;99.90
13433;DHT22;6789;47.678;9.158;2023-04-29T02:13:29;13.70;99.90
13433;DHT22;6789;47.678;9.158;2023-04-29T02:18:21;13.70;99.90
13433;DHT22;6789;47.678;9.158;2023-04-29T02:23:12;13.60;99.90
13433;DHT22;6789;47.678;9.158;2023-04-29T02:28:04;13.70;99.90
13433;DHT22;6789;47.678;9.158;2023-04-29T02:32:56;13.70;99.90
13433;DHT22;6789;47.678;9.158;2023-04-29T02:37:48;13.70;99.90
13433;DHT22;6789;47.678;9.158;2023-04-29T02:42:40;13.70;99.90
13433;DHT22;6789;47.678;9.158;2023-04-29T02:47:32;13.50;99.90
13433;DHT22;6789;47.678;9.158;2023-04-29T02:52:23;13.50;99.90
13433;DHT22;6789;47.678;9.158;2023-04-29T02:57:15;13.50;99.90
13433;DHT22;6789;47.678;9.158;2023-04-29T03:02:07;13.40;99.90
13433;DHT22;6789;47.678;9.158;2023-04-29T03:06:59;13.40;99.90
13433;DHT22;6789;47.678;9.158;2023-04-29T03:11:51;13.40;99.90
13433;DHT22;6789;47.678;9.158;2023-04-29T03:16:44;13.40;99.90
13433;DHT22;6789;47.678;9.158;2023-04-29T03:21:36;13.50;99.90
13433;DHT22;6789;47.678;9.158;2023-04-29T03:26:28;13.50;99.90
13433;DHT22;6789;47.678;9.158;2023-04-29T03:31:19;13.50;99.90
13433;DHT22;6789;47.678;9.158;2023-04-29T03:36:13;13.50;99.90
13433;DHT22;6789;47.678;9.158;2023-04-29T03:41:05;13.50;99.90
13433;DHT22;6789;47.678;9.158;2023-04-29T03:45:59;13.50;99.90
13433;DHT22;6789;47.678;9.158;2023-04-29T03:56:01;13.40;99.90
13433;DHT22;6789;47.678;9.158;2023-04-29T04:00:54;13.30;99.90
13433;DHT22;6789;47.678;9.158;2023-04-29T04:05:47;13.30;99.90
13433;DHT22;6789;47.678;9.158;2023-04-29T04:10:38;13.10;99.90
13433;DHT22;6789;47.678;9.158;2023-04-29T04:15:30;13.00;99.90
13433;DHT22;6789;47.678;9.158;2023-04-29T04:20:22;13.00;99.90
13433;DHT22;6789;47.678;9.158;2023-04-29T04:25:18;12.90;99.90
13433;DHT22;6789;47.678;9.158;2023-04-29T04:30:23;12.80;99.90
13433;DHT22;6789;47.678;9.158;2023-04-29T04:35:15;12.80;99.90
13433;DHT22;6789;47.678;9.158;2023-04-29T04:40:07;12.80;99.90
13433;DHT22;6789;47.678;9.158;2023-04-29T04:45:01;12.80;99.90
13433;DHT22;6789;47.678;9.158;2023-04-29T04:49:53;12.80;99.90
13433;DHT22;6789;47.678;9.158;2023-04-29T04:54:46;12.70;99.90
13433;DHT22;6789;47.678;9.158;2023-04-29T04:59:39;12.70;99.90
13433;DHT22;6789;47.678;9.158;2023-04-29T05:04:32;12.70;99.90
13433;DHT22;6789;47.678;9.158;2023-04-29T05:09:24;12.80;99.90
13433;DHT22;6789;47.678;9.158;2023-04-29T05:14:17;12.80;99.90
13433;DHT22;6789;47.678;9.158;2023-04-29T05:19:09;13.00;99.90
13433;DHT22;6789;47.678;9.158;2023-04-29T05:24:00;13.60;99.90
13433;DHT22;6789;47.678;9.158;2023-04-29T05:28:52;14.90;99.90
13433;DHT22;6789;47.678;9.158;2023-04-29T05:33:45;16.60;99.90
13433;DHT22;6789;47.678;9.158;2023-04-29T05:38:37;17.90;99.90
13433;DHT22;6789;47.678;9.158;2023-04-29T05:43:29;18.80;99.90
13433;DHT22;6789;47.678;9.158;2023-04-29T05:48:21;19.80;99.90
13433;DHT22;6789;47.678;9.158;2023-04-29T05:53:12;20.00;99.90
13433;DHT22;6789;47.678;9.158;2023-04-29T05:58:04;20.60;99.90
13433;DHT22;6789;47.678;9.158;2023-04-29T06:02:56;20.70;99.90
13433;DHT22;6789;47.678;9.158;2023-04-29T06:07:49;21.10;99.90
13433;DHT22;6789;47.678;9.158;2023-04-29T06:12:42;21.90;99.90
13433;DHT22;6789;47.678;9.158;2023-04-29T06:17:34;22.00;99.90
13433;DHT22;6789;47.678;9.158;2023-04-29T06:22:35;22.40;99.90
13433;DHT22;6789;47.678;9.158;2023-04-29T06:27:28;22.00;99.90
13433;DHT22;6789;47.678;9.158;2023-04-29T06:32:20;20.90;99.90
13433;DHT22;6789;47.678;9.158;2023-04-29T06:37:14;20.40;99.90
13433;DHT22;6789;47.678;9.158;2023-04-29T06:42:20;20.50;99.90
13433;DHT22;6789;47.678;9.158;2023-04-29T06:47:12;20.80;99.90
13433;DHT22;6789;47.678;9.158;2023-04-29T06:52:20;20.90;99.90
13433;DHT22;6789;47.678;9.158;2023-04-29T06:57:12;20.70;99.90
13433;DHT22;6789;47.678;9.158;2023-04-29T07:02:07;20.80;99.90
13433;DHT22;6789;47.678;9.158;2023-04-29T07:06:59;21.00;99.90
13433;DHT22;6789;47.678;9.158;2023-04-29T07:11:56;20.80;99.90
13433;DHT22;6789;47.678;9.158;2023-04-29T07:16:56;20.40;99.90
13433;DHT22;6789;47.678;9.158;2023-04-29T07:21:56;20.60;99.90
13433;DHT22;6789;47.678;9.158;2023-04-29T07:27:02;20.90;99.90
13433;DHT22;6789;47.678;9.158;2023-04-29T07:31:56;21.00;99.90
13433;DHT22;6789;47.678;9.158;2023-04-29T07:37:01;20.90;99.90
13433;DHT22;6789;47.678;9.158;2023-04-29T07:42:08;20.70;99.90
13433;DHT22;6789;47.678;9.158;2023-04-29T07:47:14;21.30;99.90
13433;DHT22;6789;47.678;9.158;2023-04-29T07:52:20;21.30;99.90
13433;DHT22;6789;47.678;9.158;2023-04-29T07:57:20;21.10;99.90
13433;DHT22;6789;47.678;9.158;2023-04-29T08:02:26;20.70;99.90
13433;DHT22;6789;47.678;9.158;2023-04-29T08:07:32;20.00;99.90
13433;DHT22;6789;47.678;9.158;2023-04-29T08:12:38;20.00;99.90
13433;DHT22;6789;47.678;9.158;2023-04-29T08:17:30;20.00;99.90
13433;DHT22;6789;47.678;9.158;2023-04-29T08:22:22;19.80;99.90
13433;DHT22;6789;47.678;9.158;2023-04-29T08:27:13;19.50;99.90
13433;DHT22;6789;47.678;9.158;2023-04-29T08:32:21;19.10;99.90
13433;DHT22;6789;47.678;9.158;2023-04-29T08:37:27;19.40;99.90
13433;DHT22;6789;47.678;9.158;2023-04-29T08:42:34;19.80;99.90
13433;DHT22;6789;47.678;9.158;2023-04-29T08:47:29;20.20;99.90
13433;DHT22;6789;47.678;9.158;2023-04-29T08:52:25;20.70;99.90
13433;DHT22;6789;47.678;9.158;2023-04-29T08:57:35;21.10;99.90
13433;DHT22;6789;47.678;9.158;2023-04-29T09:02:49;20.70;99.90
13433;DHT22;6789;47.678;9.158;2023-04-29T09:07:59;20.00;99.90
13433;DHT22;6789;47.678;9.158;2023-04-29T09:12:56;20.10;99.90
13433;DHT22;6789;47.678;9.158;2023-04-29T09:17:49;20.40;99.90
13433;DHT22;6789;47.678;9.158;2023-04-29T09:22:54;20.90;99.90
13433;DHT22;6789;47.678;9.158;2023-04-29T09:27:48;21.20;99.90
13433;DHT22;6789;47.678;9.158;2023-04-29T09:32:41;21.30;99.90
13433;DHT22;6789;47.678;9.158;2023-04-29T09:37:49;21.40;99.90
13433;DHT22;6789;47.678;9.158;2023-04-29T09:42:44;21.20;99.90
13433;DHT22;6789;47.678;9.158;2023-04-29T09:48:01;21.40;99.90
13433;DHT22;6789;47.678;9.158;2023-04-29T09:53:28;21.50;99.90
13433;DHT22;6789;47.678;9.158;2023-04-29T09:58:35;21.40;99.90
13433;DHT22;6789;47.678;9.158;2023-04-29T10:03:37;21.50;99.90
13433;DHT22;6789;47.678;9.158;2023-04-29T10:08:48;21.70;99.90
13433;DHT22;6789;47.678;9.158;2023-04-29T10:13:41;21.90;99.90
13433;DHT22;6789;47.678;9.158;2023-04-29T10:18:36;22.10;99.90
13433;DHT22;6789;47.678;9.158;2023-04-29T10:23:56;22.10;99.90
13433;DHT22;6789;47.678;9.158;2023-04-29T10:29:04;21.80;99.90
13433;DHT22;6789;47.678;9.158;2023-04-29T10:34:21;21.80;99.90
13433;DHT22;6789;47.678;9.158;2023-04-29T10:56:12;22.80;99.90
13433;DHT22;6789;47.678;9.158;2023-04-29T11:01:40;23.20;99.90
13433;DHT22;6789;47.678;9.158;2023-04-29T11:06:53;23.30;99.90
13433;DHT22;6789;47.678;9.158;2023-04-29T11:12:01;23.60;99.90
13433;DHT22;6789;47.678;9.158;2023-04-29T11:16:58;23.30;99.90
13433;DHT22;6789;47.678;9.158;2023-04-29T11:22:28;23.50;99.90
13433;DHT22;6789;47.678;9.158;2023-04-29T11:53:19;23.70;99.90
13433;DHT22;6789;47.678;9.158;2023-04-29T11:59:05;23.80;99.90
13433;DHT22;6789;47.678;9.158;2023-04-29T12:04:13;23.30;99.90
13433;DHT22;6789;47.678;9.158;2023-04-29T12:09:22;23.30;99.90
13433;DHT22;6789;47.678;9.158;2023-04-29T12:14:28;23.20;99.90
13433;DHT22;6789;47.678;9.158;2023-04-29T12:19:21;23.10;99.90
13433;DHT22;6789;47.678;9.158;2023-04-29T12:24:15;23.40;99.90
13433;DHT22;6789;47.678;9.158;2023-04-29T12:29:09;23.40;99.90
13433;DHT22;6789;47.678;9.158;2023-04-29T12:34:16;23.40;99.90
13433;DHT22;6789;47.678;9.158;2023-04-29T12:39:27;23.20;99.90
13433;DHT22;6789;47.678;9.158;2023-04-29T12:44:35;22.70;99.90
13433;DHT22;6789;47.678;9.158;2023-04-29T12:49:46;22.10;99.90
13433;DHT22;6789;47.678;9.158;2023-04-29T12:54:39;20.70;99.90
13433;DHT22;6789;47.678;9.158;2023-04-29T12:59:34;20.40;99.90
13433;DHT22;6789;47.678;9.158;2023-04-29T13:04:26;20.10;99.90
13433;DHT22;6789;47.678;9.158;2023-04-29T13:09:19;19.80;99.90
13433;DHT22;6789;47.678;9.158;2023-04-29T13:14:25;19.20;99.90
13433;DHT22;6789;47.678;9.158;2023-04-29T13:19:31;18.90;99.90
13433;DHT22;6789;47.678;9.158;2023-04-29T13:24:41;18.80;99.90
13433;DHT22;6789;47.678;9.158;2023-04-29T13:29:47;18.80;99.90
13433;DHT22;6789;47.678;9.158;2023-04-29T13:34:54;18.80;99.90
13433;DHT22;6789;47.678;9.158;2023-04-29T13:39:55;19.10;99.90
13433;DHT22;6789;47.678;9.158;2023-04-29T13:44:48;19.30;99.90
13433;DHT22;6789;47.678;9.158;2023-04-29T13:50:07;19.20;99.90
13433;DHT22;6789;47.678;9.158;2023-04-29T13:55:28;19.60;99.90
13433;DHT22;6789;47.678;9.158;2023-04-29T14:00:35;19.70;99.90
13433;DHT22;6789;47.678;9.158;2023-04-29T14:05:45;19.50;99.90
13433;DHT22;6789;47.678;9.158;2023-04-29T14:10:37;19.40;99.90
13433;DHT22;6789;47.678;9.158;2023-04-29T14:15:29;19.40;99.90
13433;DHT22;6789;47.678;9.158;2023-04-29T14:20:21;19.30;99.90
13433;DHT22;6789;47.678;9.158;2023-04-29T14:25:28;19.20;99.90
13433;DHT22;6789;47.678;9.158;2023-04-29T14:30:28;18.70;99.90
13433;DHT22;6789;47.678;9.158;2023-04-29T14:46:12;18.30;99.90
13433;DHT22;6789;47.678;9.158;2023-04-29T14:51:18;18.70;99.90
13433;DHT22;6789;47.678;9.158;2023-04-29T14:56:25;19.20;99.90
13433;DHT22;6789;47.678;9.158;2023-04-29T15:01:32;19.40;99.90
13433;DHT22;6789;47.678;9.158;2023-04-29T15:06:40;19.70;99.90
13433;DHT22;6789;47.678;9.158;2023-04-29T15:11:45;20.00;99.90
13433;DHT22;6789;47.678;9.158;2023-04-29T15:16:51;20.10;99.90
13433;DHT22;6789;47.678;9.158;2023-04-29T15:21:58;20.00;99.90
13433;DHT22;6789;47.678;9.158;2023-04-29T15:27:03;19.80;99.90
13433;DHT22;6789;47.678;9.158;2023-04-29T15:32:17;19.90;99.90
13433;DHT22;6789;47.678;9.158;2023-04-29T15:37:12;19.70;99.90
13433;DHT22;6789;47.678;9.158;2023-04-29T15:42:04;19.60;99.90
13433;DHT22;6789;47.678;9.158;2023-04-29T15:47:10;19.80;99.90
13433;DHT22;6789;47.678;9.158;2023-04-29T15:53:02;20.10;99.90
13433;DHT22;6789;47.678;9.158;2023-04-29T15:58:11;20.30;99.90
13433;DHT22;6789;47.678;9.158;2023-04-29T16:03:20;20.70;99.90
13433;DHT22;6789;47.678;9.158;2023-04-29T16:34:09;20.40;99.90
13433;DHT22;6789;47.678;9.158;2023-04-29T16:39:02;20.20;99.90
13433;DHT22;6789;47.678;9.158;2023-04-29T16:43:55;20.20;99.90
13433;DHT22;6789;47.678;9.158;2023-04-29T16:49:02;20.10;99.90
13433;DHT22;6789;47.678;9.158;2023-04-29T16:54:08;19.90;99.90
13433;DHT22;6789;47.678;9.158;2023-04-29T16:59:04;19.80;99.90
13433;DHT22;6789;47.678;9.158;2023-04-29T17:03:57;19.70;99.90
13433;DHT22;6789;47.678;9.158;2023-04-29T17:08:57;19.60;99.90
13433;DHT22;6789;47.678;9.158;2023-04-29T17:13:54;19.40;99.90
13433;DHT22;6789;47.678;9.158;2023-04-29T17:18:46;19.40;99.90
13433;DHT22;6789;47.678;9.158;2023-04-29T17:23:52;19.20;99.90
13433;DHT22;6789;47.678;9.158;2023-04-29T17:28:46;19.00;99.90
13433;DHT22;6789;47.678;9.158;2023-04-29T17:33:52;19.00;99.90
13433;DHT22;6789;47.678;9.158;2023-04-29T17:39:04;18.80;99.90
13433;DHT22;6789;47.678;9.158;2023-04-29T17:44:12;18.50;99.90
13433;DHT22;6789;47.678;9.158;2023-04-29T17:49:04;18.30;99.90
13433;DHT22;6789;47.678;9.158;2023-04-29T17:53:57;18.00;99.90
13433;DHT22;6789;47.678;9.158;2023-04-29T17:58:50;17.80;99.90
13433;DHT22;6789;47.678;9.158;2023-04-29T18:04:00;17.50;99.90
13433;DHT22;6789;47.678;9.158;2023-04-29T18:09:06;17.30;99.90
13433;DHT22;6789;47.678;9.158;2023-04-29T18:14:12;17.10;99.90
13433;DHT22;6789;47.678;9.158;2023-04-29T18:19:18;16.90;99.90
13433;DHT22;6789;47.678;9.158;2023-04-29T18:24:10;16.70;99.90
13433;DHT22;6789;47.678;9.158;2023-04-29T18:29:16;16.50;99.90
13433;DHT22;6789;47.678;9.158;2023-04-29T18:34:22;16.40;99.90
13433;DHT22;6789;47.678;9.158;2023-04-29T18:39:15;16.20;99.90
13433;DHT22;6789;47.678;9.158;2023-04-29T18:44:09;16.10;99.90
13433;DHT22;6789;47.678;9.158;2023-04-29T18:49:16;15.90;99.90
13433;DHT22;6789;47.678;9.158;2023-04-29T18:54:22;15.70;99.90
13433;DHT22;6789;47.678;9.158;2023-04-29T18:59:28;15.60;99.90
13433;DHT22;6789;47.678;9.158;2023-04-29T19:04:34;15.40;99.90
13433;DHT22;6789;47.678;9.158;2023-04-29T19:09:43;15.20;99.90
13433;DHT22;6789;47.678;9.158;2023-04-29T19:14:54;15.30;99.90
13433;DHT22;6789;47.678;9.158;2023-04-29T19:20:00;15.20;99.90
13433;DHT22;6789;47.678;9.158;2023-04-29T19:25:06;15.00;99.90
13433;DHT22;6789;47.678;9.158;2023-04-29T19:30:12;14.80;99.90
13433;DHT22;6789;47.678;9.158;2023-04-29T19:35:20;14.70;99.90
13433;DHT22;6789;47.678;9.158;2023-04-29T19:40:29;14.70;99.90
13433;DHT22;6789;47.678;9.158;2023-04-29T19:45:35;14.50;99.90
13433;DHT22;6789;47.678;9.158;2023-04-29T19:50:32;14.50;99.90
13433;DHT22;6789;47.678;9.158;2023-04-29T19:55:33;14.30;99.90
13433;DHT22;6789;47.678;9.158;2023-04-29T20:00:38;14.20;99.90
13433;DHT22;6789;47.678;9.158;2023-04-29T20:05:31;14.30;99.90
13433;DHT22;6789;47.678;9.158;2023-04-29T20:10:26;14.20;99.90
13433;DHT22;6789;47.678;9.158;2023-04-29T20:15:20;14.10;99.90
13433;DHT22;6789;47.678;9.158;2023-04-29T20:20:19;14.10;99.90
13433;DHT22;6789;47.678;9.158;2023-04-29T20:25:12;14.20;99.90
13433;DHT22;6789;47.678;9.158;2023-04-29T20:30:06;14.10;99.90
13433;DHT22;6789;47.678;9.158;2023-04-29T20:35:14;14.10;99.90
13433;DHT22;6789;47.678;9.158;2023-04-29T20:40:12;14.10;99.90
13433;DHT22;6789;47.678;9.158;2023-04-29T20:45:06;13.90;99.90
13433;DHT22;6789;47.678;9.158;2023-04-29T20:50:00;13.80;99.90
13433;DHT22;6789;47.678;9.158;2023-04-29T20:54:52;13.90;99.90
13433;DHT22;6789;47.678;9.158;2023-04-29T20:59:44;13.80;99.90
13433;DHT22;6789;47.678;9.158;2023-04-29T21:04:51;13.70;99.90
13433;DHT22;6789;47.678;9.158;2023-04-29T21:09:52;13.60;99.90
13433;DHT22;6789;47.678;9.158;2023-04-29T21:14:45;13.60;99.90
13433;DHT22;6789;47.678;9.158;2023-04-29T21:19:37;13.50;99.90
13433;DHT22;6789;47.678;9.158;2023-04-29T21:24:30;13.60;99.90
13433;DHT22;6789;47.678;9.158;2023-04-29T21:29:22;13.60;99.90
13433;DHT22;6789;47.678;9.158;2023-04-29T21:34:15;13.70;99.90
13433;DHT22;6789;47.678;9.158;2023-04-29T21:39:10;13.70;99.90
13433;DHT22;6789;47.678;9.158;2023-04-29T21:44:20;13.80;99.90
13433;DHT22;6789;47.678;9.158;2023-04-29T21:49:17;13.50;99.90
13433;DHT22;6789;47.678;9.158;2023-04-29T21:54:23;13.40;99.90
13433;DHT22;6789;47.678;9.158;2023-04-29T21:59:17;13.50;99.90
13433;DHT22;6789;47.678;9.158;2023-04-29T22:04:10;13.40;99.90
13433;DHT22;6789;47.678;9.158;2023-04-29T22:09:16;13.50;99.90
13433;DHT22;6789;47.678;9.158;2023-04-29T22:14:10;13.50;99.90
13433;DHT22;6789;47.678;9.158;2023-04-29T22:19:03;13.40;99.90
13433;DHT22;6789;47.678;9.158;2023-04-29T22:24:00;13.30;99.90
13433;DHT22;6789;47.678;9.158;2023-04-29T22:29:06;13.30;99.90
13433;DHT22;6789;47.678;9.158;2023-04-29T22:34:08;13.30;99.90
13433;DHT22;6789;47.678;9.158;2023-04-29T22:39:15;13.30;99.90
13433;DHT22;6789;47.678;9.158;2023-04-29T22:44:21;13.40;99.90
13433;DHT22;6789;47.678;9.158;2023-04-29T22:49:22;13.50;99.90
13433;DHT22;6789;47.678;9.158;2023-04-29T22:54:29;13.50;99.90
13433;DHT22;6789;47.678;9.158;2023-04-29T22:59:26;13.30;99.90
13433;DHT22;6789;47.678;9.158;2023-04-29T23:04:18;13.30;99.90
13433;DHT22;6789;47.678;9.158;2023-04-29T23:09:27;13.30;99.90
13433;DHT22;6789;47.678;9.158;2023-04-29T23:14:33;13.20;99.90
13433;DHT22;6789;47.678;9.158;2023-04-29T23:19:27;13.30;99.90
13433;DHT22;6789;47.678;9.158;2023-04-29T23:24:34;13.30;99.90
13433;DHT22;6789;47.678;9.158;2023-04-29T23:29:35;13.10;99.90
13433;DHT22;6789;47.678;9.158;2023-04-29T23:34:32;13.10;99.90
13433;DHT22;6789;47.678;9.158;2023-04-29T23:39:26;13.10;99.90
13433;DHT22;6789;47.678;9.158;2023-04-29T23:44:33;13.00;99.90
13433;DHT22;6789;47.678;9.158;2023-04-29T23:49:27;13.10;99.90
13433;DHT22;6789;47.678;9.158;2023-04-29T23:54:19;13.00;99.90
13433;DHT22;6789;47.678;9.158;2023-04-29T23:59:25;12.90;99.90
